createdAt,value
2023-12-05T00:00:58.632Z,17.15
2023-12-05T00:03:44.780Z,15.75
2023-12-05T00:06:30.994Z,16.65
2023-12-05T00:09:16.949Z,17.17
2023-12-05T00:12:02.385Z,17.27
2023-12-05T00:14:47.981Z,17.08
2023-12-05T00:17:33.561Z,15.98
2023-12-05T00:20:19.040Z,16.90
2023-12-05T00:23:04.607Z,21.20
2023-12-05T00:25:50.179Z,17.55
2023-12-05T00:28:35.861Z,17.63
2023-12-05T00:31:21.937Z,19.23
2023-12-05T00:34:08.156Z,19.08
2023-12-05T00:36:54.016Z,17.58
2023-12-05T00:39:40.570Z,18.90
2023-12-05T00:42:26.493Z,16.05
2023-12-05T00:45:15.753Z,16.90
2023-12-05T00:48:01.450Z,17.85
2023-12-05T00:50:47.655Z,19.10
2023-12-05T00:53:33.348Z,18.00
2023-12-05T00:56:20.163Z,18.15
2023-12-05T00:59:06.041Z,16.80
2023-12-05T01:01:51.991Z,17.67
2023-12-05T01:04:38.188Z,17.55
2023-12-05T01:07:24.330Z,16.33
2023-12-05T01:10:10.972Z,16.27
2023-12-05T01:12:57.056Z,16.83
2023-12-05T01:15:43.211Z,16.45
2023-12-05T01:18:30.398Z,15.93
2023-12-05T01:21:16.332Z,17.15
2023-12-05T01:24:02.808Z,16.58
2023-12-05T01:26:48.391Z,15.50
2023-12-05T01:29:34.534Z,15.10
2023-12-05T01:32:20.623Z,15.02
2023-12-05T01:35:06.757Z,15.55
2023-12-05T01:37:52.556Z,14.32
2023-12-05T01:40:38.387Z,14.80
2023-12-05T01:43:23.872Z,15.50
2023-12-05T01:46:10.322Z,13.98
2023-12-05T01:48:55.911Z,13.57
2023-12-05T01:51:42.310Z,13.82
2023-12-05T01:54:33.125Z,12.98
2023-12-05T01:57:20.838Z,13.00
2023-12-05T02:00:08.739Z,13.55
2023-12-05T02:02:58.651Z,13.65
2023-12-05T02:05:44.920Z,12.77
2023-12-05T02:08:33.301Z,12.48
2023-12-05T02:11:18.656Z,13.20
2023-12-05T02:14:06.565Z,12.45
2023-12-05T02:17:02.919Z,12.30
2023-12-05T02:20:14.168Z,12.27
2023-12-05T02:23:02.765Z,12.93
2023-12-05T02:25:57.857Z,11.15
2023-12-05T02:28:44.215Z,12.20
2023-12-05T02:31:29.954Z,12.13
2023-12-05T02:34:16.540Z,11.45
2023-12-05T02:37:21.115Z,13.48
2023-12-05T02:40:32.181Z,12.05
2023-12-05T02:43:29.394Z,12.73
2023-12-05T02:46:18.815Z,12.25
2023-12-05T02:49:05.681Z,12.90
2023-12-05T02:51:52.026Z,12.98
2023-12-05T02:54:38.396Z,12.13
2023-12-05T02:57:24.235Z,13.32
2023-12-05T03:00:11.114Z,14.68
2023-12-05T03:02:57.768Z,13.13
2023-12-05T03:05:43.386Z,12.98
2023-12-05T03:08:28.974Z,12.38
2023-12-05T03:11:15.398Z,13.20
2023-12-05T03:14:02.340Z,12.77
2023-12-05T03:16:48.216Z,12.88
2023-12-05T03:19:33.996Z,13.27
2023-12-05T03:22:19.736Z,13.27
2023-12-05T03:25:05.818Z,11.68
2023-12-05T03:27:51.603Z,12.45
2023-12-05T03:30:37.880Z,12.55
2023-12-05T03:33:23.706Z,12.27
2023-12-05T03:36:11.350Z,12.45
2023-12-05T03:38:56.855Z,12.48
2023-12-05T03:41:48.490Z,13.05
2023-12-05T03:44:34.247Z,11.90
2023-12-05T03:47:20.218Z,11.38
2023-12-05T03:50:06.675Z,11.13
2023-12-05T03:52:52.374Z,11.32
2023-12-05T03:55:37.989Z,11.80
2023-12-05T03:58:23.489Z,10.20
2023-12-05T04:01:09.435Z,10.50
2023-12-05T04:03:55.321Z,11.98
2023-12-05T04:06:41.229Z,10.98
2023-12-05T04:09:27.112Z,10.88
2023-12-05T04:12:12.790Z,11.43
2023-12-05T04:14:58.117Z,10.43
2023-12-05T04:17:43.951Z,11.38
2023-12-05T04:20:29.879Z,10.38
2023-12-05T04:23:15.776Z,10.88
2023-12-05T04:26:01.436Z,10.95
2023-12-05T04:28:47.688Z,11.32
2023-12-05T04:31:33.706Z,11.18
2023-12-05T04:34:19.718Z,11.90
2023-12-05T04:37:07.269Z,11.55
2023-12-05T04:39:53.024Z,11.98
2023-12-05T04:42:39.727Z,11.00
2023-12-05T04:45:25.114Z,11.23
2023-12-05T04:48:10.924Z,11.38
2023-12-05T04:50:56.663Z,11.65
2023-12-05T04:53:43.173Z,10.32
2023-12-05T04:56:29.101Z,11.32
2023-12-05T04:59:14.542Z,10.20
2023-12-05T05:01:59.981Z,11.00
2023-12-05T05:04:47.396Z,11.13
2023-12-05T05:07:34.449Z,10.75
2023-12-05T05:10:20.389Z,10.52
2023-12-05T05:13:06.024Z,10.75
2023-12-05T05:15:52.843Z,10.38
2023-12-05T05:18:38.842Z,11.25
2023-12-05T05:21:24.691Z,11.65
2023-12-05T05:24:10.600Z,11.32
2023-12-05T05:26:56.692Z,11.55
2023-12-05T05:29:42.696Z,12.25
2023-12-05T05:32:29.197Z,11.65
2023-12-05T05:35:15.153Z,11.23
2023-12-05T05:38:00.617Z,11.52
2023-12-05T05:40:48.745Z,11.02
2023-12-05T05:43:34.187Z,11.38
2023-12-05T05:46:19.970Z,11.80
2023-12-05T05:49:06.209Z,11.90
2023-12-05T05:51:52.704Z,12.05
2023-12-05T05:54:38.926Z,11.60
2023-12-05T05:57:25.153Z,12.45
2023-12-05T06:00:13.088Z,11.70
2023-12-05T06:02:59.117Z,11.85
2023-12-05T06:05:45.433Z,12.18
2023-12-05T06:08:31.152Z,11.35
2023-12-05T06:11:16.907Z,10.90
2023-12-05T06:14:02.451Z,11.45
2023-12-05T06:16:48.226Z,11.02
2023-12-05T06:19:33.827Z,10.77
2023-12-05T06:22:19.663Z,11.30
2023-12-05T06:25:05.973Z,10.85
2023-12-05T06:27:51.640Z,11.63
2023-12-05T06:30:37.022Z,11.55
2023-12-05T06:33:23.166Z,10.70
2023-12-05T06:36:09.443Z,11.15
2023-12-05T06:38:56.124Z,11.00
2023-12-05T06:41:42.068Z,14.50
2023-12-05T06:44:27.466Z,33.25
2023-12-05T06:47:13.604Z,21.63
2023-12-05T06:50:03.000Z,12.77
2023-12-05T06:52:49.930Z,11.05
2023-12-05T06:55:35.871Z,10.13
2023-12-05T06:58:23.384Z,10.00
2023-12-05T07:01:09.893Z,9.88
2023-12-05T07:03:57.544Z,10.27
2023-12-05T07:06:45.116Z,10.88
2023-12-05T07:09:34.202Z,11.95
2023-12-05T07:12:20.455Z,12.00
2023-12-05T07:15:09.597Z,10.63
2023-12-05T07:17:55.264Z,10.23
2023-12-05T07:20:41.663Z,9.43
2023-12-05T07:23:27.543Z,9.00
2023-12-05T07:26:13.498Z,9.32
2023-12-05T07:28:59.429Z,9.65
2023-12-05T07:31:45.504Z,9.32
2023-12-05T07:34:31.022Z,9.45
2023-12-05T07:37:16.912Z,10.10
2023-12-05T07:40:06.941Z,10.40
2023-12-05T07:42:53.343Z,9.98
2023-12-05T07:45:39.627Z,9.95
2023-12-05T07:48:25.505Z,11.13
2023-12-05T07:51:19.594Z,11.13
2023-12-05T07:54:06.506Z,10.07
2023-12-05T07:56:52.708Z,10.55
2023-12-05T07:59:39.725Z,10.27
2023-12-05T08:02:25.920Z,11.60
2023-12-05T08:05:12.680Z,9.82
2023-12-05T08:08:27.254Z,9.35
2023-12-05T08:11:18.071Z,9.35
2023-12-05T08:14:09.293Z,9.32
2023-12-05T08:16:55.459Z,9.00
2023-12-05T08:19:41.594Z,9.10
2023-12-05T08:22:28.199Z,8.70
2023-12-05T08:25:14.036Z,9.27
2023-12-05T08:28:00.038Z,8.75
2023-12-05T08:30:46.245Z,9.52
2023-12-05T08:33:32.201Z,9.10
2023-12-05T08:36:18.152Z,8.10
2023-12-05T08:39:04.953Z,9.18
2023-12-05T08:41:51.305Z,7.75
2023-12-05T08:44:37.440Z,8.02
2023-12-05T08:47:23.322Z,8.23
2023-12-05T08:50:10.441Z,8.50
2023-12-05T08:56:54.000Z,7.47
2023-12-05T08:59:40.296Z,7.32
2023-12-05T09:02:26.510Z,6.85
2023-12-05T09:05:12.556Z,7.18
2023-12-05T09:07:58.793Z,6.63
2023-12-05T09:10:45.998Z,7.70
2023-12-05T09:13:31.726Z,6.80
2023-12-05T09:16:17.639Z,6.13
2023-12-05T09:19:03.586Z,6.57
2023-12-05T09:21:53.276Z,6.45
2023-12-05T09:24:39.805Z,6.57
2023-12-05T09:27:26.609Z,5.95
2023-12-05T09:30:14.088Z,6.25
2023-12-05T09:33:00.383Z,7.22
2023-12-05T09:35:46.852Z,6.70
2023-12-05T09:38:33.170Z,7.22
2023-12-05T09:41:20.782Z,6.88
2023-12-05T09:44:09.791Z,6.53
2023-12-05T09:47:00.100Z,6.28
2023-12-05T09:49:46.882Z,6.57
2023-12-05T09:52:33.385Z,6.72
2023-12-05T09:55:20.038Z,6.28
2023-12-05T09:58:05.875Z,5.90
2023-12-05T10:00:56.072Z,6.15
2023-12-05T10:03:45.563Z,6.05
2023-12-05T10:06:36.284Z,6.05
2023-12-05T10:09:24.681Z,6.47
2023-12-05T10:12:12.243Z,6.18
2023-12-05T10:14:58.362Z,6.30
2023-12-05T10:17:45.976Z,6.45
2023-12-05T10:20:33.756Z,5.75
2023-12-05T10:23:20.040Z,6.03
2023-12-05T10:26:07.008Z,6.60
2023-12-05T10:28:56.124Z,5.82
2023-12-05T10:31:45.003Z,5.70
2023-12-05T10:34:30.991Z,5.22
2023-12-05T10:37:29.555Z,5.63
2023-12-05T10:40:15.432Z,5.28
2023-12-05T10:43:01.015Z,5.55
2023-12-05T10:45:46.731Z,5.75
2023-12-05T10:48:33.128Z,4.85
2023-12-05T10:51:19.639Z,5.22
2023-12-05T10:54:05.337Z,5.57
2023-12-05T10:56:58.787Z,6.10
2023-12-05T10:59:45.761Z,5.95
2023-12-05T11:02:33.106Z,5.97
2023-12-05T11:05:20.619Z,5.68
2023-12-05T11:08:06.640Z,6.15
2023-12-05T11:10:55.120Z,5.68
2023-12-05T11:13:43.240Z,6.00
2023-12-05T11:16:37.278Z,6.13
2023-12-05T11:20:05.036Z,5.40
2023-12-05T11:23:55.904Z,5.32
2023-12-05T11:27:10.072Z,6.10
2023-12-05T11:30:22.161Z,6.32
2023-12-05T11:33:55.431Z,6.10
2023-12-05T11:36:49.083Z,6.10
2023-12-05T11:39:35.411Z,5.65
2023-12-05T11:42:21.746Z,5.78
2023-12-05T11:45:23.853Z,6.55
2023-12-05T11:48:17.403Z,6.00
2023-12-05T11:51:04.155Z,5.95
2023-12-05T11:53:51.088Z,6.25
2023-12-05T11:56:37.878Z,6.00
2023-12-05T11:59:25.500Z,5.13
2023-12-05T12:02:19.912Z,5.47
2023-12-05T12:05:08.234Z,5.43
2023-12-05T12:07:59.049Z,5.55
2023-12-05T12:10:45.156Z,5.40
2023-12-05T12:13:31.239Z,5.30
2023-12-05T12:16:22.053Z,5.43
2023-12-05T12:19:13.644Z,5.78
2023-12-05T12:22:10.038Z,4.90
2023-12-05T12:25:15.049Z,5.13
2023-12-05T12:28:01.546Z,5.40
2023-12-05T12:30:48.004Z,5.32
2023-12-05T12:33:42.054Z,5.32
2023-12-05T12:36:28.214Z,4.70
2023-12-05T12:39:16.751Z,5.13
2023-12-05T12:42:02.965Z,5.32
2023-12-05T12:44:49.274Z,4.95
2023-12-05T12:47:36.264Z,4.80
2023-12-05T12:50:22.196Z,5.05
2023-12-05T12:53:07.957Z,5.15
2023-12-05T12:55:54.588Z,5.05
2023-12-05T12:58:44.122Z,4.10
2023-12-05T13:04:17.668Z,3.80
2023-12-05T13:07:04.151Z,4.30
2023-12-05T13:09:50.223Z,5.05
2023-12-05T13:12:36.373Z,5.00
2023-12-05T13:15:28.319Z,4.57
2023-12-05T13:18:14.250Z,5.30
2023-12-05T13:21:00.208Z,5.40
2023-12-05T13:23:46.272Z,4.15
2023-12-05T13:26:32.174Z,5.07
2023-12-05T13:29:17.963Z,4.68
2023-12-05T13:32:05.531Z,5.25
2023-12-05T13:34:51.205Z,4.78
2023-12-05T13:37:38.087Z,5.18
2023-12-05T13:40:24.731Z,5.28
2023-12-05T13:43:10.661Z,4.88
2023-12-05T13:45:56.344Z,4.55
2023-12-05T13:48:43.250Z,4.55
2023-12-05T13:51:30.632Z,4.70
2023-12-05T13:54:17.875Z,4.88
2023-12-05T13:57:04.180Z,4.18
2023-12-05T13:59:50.438Z,3.10
2023-12-05T14:02:37.785Z,3.00
2023-12-05T14:05:23.941Z,2.95
2023-12-05T14:08:09.851Z,2.53
2023-12-05T14:10:55.880Z,2.50
2023-12-05T14:13:41.734Z,2.53
2023-12-05T14:16:28.511Z,2.50
2023-12-05T14:19:14.942Z,2.25
2023-12-05T14:22:01.097Z,2.42
2023-12-05T14:24:47.247Z,2.08
2023-12-05T14:27:33.326Z,2.30
2023-12-05T14:30:19.244Z,2.13
2023-12-05T14:33:05.573Z,2.40
2023-12-05T14:35:51.638Z,2.03
2023-12-05T14:38:37.154Z,1.80
2023-12-05T14:41:23.470Z,2.00
2023-12-05T14:44:09.783Z,2.05
2023-12-05T14:46:58.280Z,1.70
2023-12-05T14:49:44.128Z,1.70
2023-12-05T14:52:30.222Z,1.70
2023-12-05T14:55:16.695Z,1.98
2023-12-05T14:58:02.332Z,2.05
2023-12-05T15:00:48.488Z,1.95
2023-12-05T15:03:34.836Z,2.13
2023-12-05T15:06:21.245Z,2.58
2023-12-05T15:09:07.681Z,2.30
2023-12-05T15:11:53.621Z,2.20
2023-12-05T15:14:39.876Z,2.45
2023-12-05T15:17:25.770Z,8.57
2023-12-05T15:20:20.185Z,5.45
2023-12-05T15:23:09.296Z,5.15
2023-12-05T15:25:55.349Z,2.85
2023-12-05T15:28:41.597Z,2.75
2023-12-05T15:31:27.320Z,2.25
2023-12-05T15:34:13.128Z,2.10
2023-12-05T15:36:59.831Z,2.67
2023-12-05T15:39:45.692Z,2.70
2023-12-05T15:42:31.688Z,2.63
2023-12-05T15:45:20.542Z,2.55
2023-12-05T15:48:07.543Z,3.08
2023-12-05T15:51:13.592Z,2.72
2023-12-05T15:53:59.430Z,2.03
2023-12-05T15:56:45.745Z,2.33
2023-12-05T15:59:31.897Z,2.38
2023-12-05T16:02:22.878Z,3.75
2023-12-05T16:05:09.361Z,6.15
2023-12-05T16:07:55.353Z,3.30
2023-12-05T16:10:46.000Z,2.75
2023-12-05T16:13:31.976Z,2.50
2023-12-05T16:16:18.862Z,2.42
2023-12-05T16:19:05.222Z,2.80
2023-12-05T16:21:51.408Z,2.58
2023-12-05T16:24:38.746Z,3.30
2023-12-05T16:27:24.519Z,3.30
2023-12-05T16:30:11.368Z,3.22
2023-12-05T16:32:57.582Z,3.28
2023-12-05T16:35:43.509Z,2.80
2023-12-05T16:38:29.100Z,2.45
2023-12-05T16:41:14.789Z,2.13
2023-12-05T16:44:01.290Z,2.03
2023-12-05T16:46:47.368Z,2.17
2023-12-05T16:49:34.162Z,2.47
2023-12-05T16:52:20.495Z,2.30
2023-12-05T16:55:06.592Z,1.95
2023-12-05T16:57:54.610Z,1.83
2023-12-05T17:00:40.396Z,1.90
2023-12-05T17:03:26.753Z,1.90
2023-12-05T17:06:12.754Z,2.05
2023-12-05T17:09:01.212Z,2.10
2023-12-05T17:11:48.905Z,1.95
2023-12-05T17:14:34.690Z,1.63
2023-12-05T17:17:20.398Z,3.42
2023-12-05T17:20:07.820Z,3.03
2023-12-05T17:22:54.562Z,2.22
2023-12-05T17:25:41.221Z,2.05
2023-12-05T17:28:28.178Z,1.92
2023-12-05T17:31:14.257Z,2.30
2023-12-05T17:34:01.274Z,2.03
2023-12-05T17:36:47.173Z,2.33
2023-12-05T17:39:33.783Z,2.17
2023-12-05T17:42:19.610Z,2.90
2023-12-05T17:45:06.574Z,2.60
2023-12-05T17:47:52.335Z,2.75
2023-12-05T17:50:40.045Z,2.33
2023-12-05T17:53:28.956Z,2.20
2023-12-05T17:56:15.411Z,2.30
2023-12-05T17:59:01.397Z,2.72
2023-12-05T18:01:47.294Z,2.42
2023-12-05T18:04:33.184Z,3.53
2023-12-05T18:07:51.937Z,2.65
2023-12-05T18:10:25.161Z,2.50
2023-12-05T18:13:12.807Z,2.00
2023-12-05T18:16:00.776Z,2.63
2023-12-05T18:18:51.991Z,2.92
2023-12-05T18:21:38.380Z,2.10
2023-12-05T18:24:24.345Z,1.83
2023-12-05T18:27:13.119Z,2.33
2023-12-05T18:29:58.862Z,2.47
2023-12-05T18:32:44.949Z,2.15
2023-12-05T18:35:31.623Z,1.90
2023-12-05T18:38:18.499Z,2.22
2023-12-05T18:41:04.461Z,1.80
2023-12-05T18:43:51.037Z,1.83
2023-12-05T18:46:37.551Z,3.00
2023-12-05T18:49:25.493Z,4.57
2023-12-05T18:52:11.332Z,2.17
2023-12-05T18:54:58.039Z,2.17
2023-12-05T18:57:44.655Z,2.00
2023-12-05T19:00:30.866Z,1.95
2023-12-05T19:03:18.499Z,1.90
2023-12-05T19:06:09.059Z,2.00
2023-12-05T19:08:54.922Z,2.10
2023-12-05T19:11:40.949Z,1.98
2023-12-05T19:14:26.846Z,2.38
2023-12-05T19:17:13.004Z,1.63
2023-12-05T19:20:00.014Z,2.13
2023-12-05T19:22:48.200Z,2.20
2023-12-05T19:25:34.022Z,2.30
2023-12-05T19:28:23.574Z,1.83
2023-12-05T19:31:09.219Z,1.98
2023-12-05T19:33:56.005Z,2.13
2023-12-05T19:36:42.104Z,2.67
2023-12-05T19:39:29.912Z,2.30
2023-12-05T19:42:17.250Z,2.40
2023-12-05T19:45:03.595Z,2.10
2023-12-05T19:47:49.785Z,2.15
2023-12-05T19:50:36.121Z,2.03
2023-12-05T19:53:22.143Z,2.22
2023-12-05T19:56:09.800Z,1.83
2023-12-05T19:58:57.431Z,1.90
2023-12-05T20:01:43.718Z,2.30
2023-12-05T20:04:29.714Z,2.67
2023-12-05T20:07:15.703Z,2.53
2023-12-05T20:10:02.084Z,2.47
2023-12-05T20:12:47.754Z,2.13
2023-12-05T20:15:33.533Z,2.10
2023-12-05T20:18:20.619Z,2.33
2023-12-05T20:21:06.209Z,2.22
2023-12-05T20:23:51.965Z,2.22
2023-12-05T20:26:41.273Z,2.03
2023-12-05T20:29:26.887Z,1.70
2023-12-05T20:32:12.967Z,2.00
2023-12-05T20:34:58.499Z,2.00
2023-12-05T20:37:44.537Z,1.80
2023-12-05T20:40:30.766Z,1.83
2023-12-05T20:43:16.451Z,1.48
2023-12-05T20:46:05.227Z,1.98
2023-12-05T20:48:53.296Z,1.65
2023-12-05T20:51:38.997Z,1.60
2023-12-05T20:54:25.994Z,1.67
2023-12-05T20:57:13.530Z,1.75
2023-12-05T20:59:59.367Z,1.77
2023-12-05T21:02:45.346Z,1.55
2023-12-05T21:05:31.203Z,1.60
2023-12-05T21:08:20.270Z,1.88
2023-12-05T21:11:06.264Z,1.77
2023-12-05T21:13:52.019Z,1.90
2023-12-05T21:16:37.883Z,1.90
2023-12-05T21:19:24.237Z,2.15
2023-12-05T21:22:10.377Z,1.70
2023-12-05T21:24:56.974Z,1.88
2023-12-05T21:27:42.826Z,1.70
2023-12-05T21:30:28.706Z,1.60
2023-12-05T21:33:15.609Z,1.98
2023-12-05T21:36:01.176Z,2.03
2023-12-05T21:38:47.335Z,1.60
2023-12-05T21:41:33.458Z,1.60
2023-12-05T21:44:20.093Z,2.63
2023-12-05T21:47:05.717Z,1.60
2023-12-05T21:49:52.601Z,2.25
2023-12-05T21:52:38.544Z,1.50
2023-12-05T21:55:24.642Z,2.33
2023-12-05T21:58:10.692Z,1.80
2023-12-05T22:00:57.015Z,1.60
2023-12-05T22:03:44.287Z,1.58
2023-12-05T22:06:30.334Z,1.42
2023-12-05T22:09:16.482Z,1.50
2023-12-05T22:12:02.199Z,1.40
2023-12-05T22:14:48.073Z,1.40
2023-12-05T22:17:35.588Z,1.50
2023-12-05T22:20:21.473Z,1.40
2023-12-05T22:23:09.320Z,1.60
2023-12-05T22:26:01.375Z,1.20
2023-12-05T22:28:47.831Z,1.20
2023-12-05T22:31:34.000Z,1.40
2023-12-05T22:34:19.702Z,1.38
2023-12-05T22:37:05.710Z,1.58
2023-12-05T22:39:51.429Z,1.58
2023-12-05T22:42:37.900Z,1.58
2023-12-05T22:45:23.782Z,1.60
2023-12-05T22:48:10.703Z,1.50
2023-12-05T22:50:56.645Z,1.60
2023-12-05T22:53:42.191Z,1.20
2023-12-05T22:56:28.001Z,1.55
2023-12-05T22:59:13.952Z,1.35
2023-12-05T23:01:59.828Z,1.48
2023-12-05T23:04:45.845Z,1.38
2023-12-05T23:07:32.039Z,1.30
2023-12-05T23:10:19.224Z,1.70
2023-12-05T23:13:05.004Z,1.80
2023-12-05T23:15:53.757Z,1.30
2023-12-05T23:18:39.254Z,1.23
2023-12-05T23:21:24.662Z,1.42
2023-12-05T23:24:10.665Z,1.50
2023-12-05T23:26:56.476Z,1.08
2023-12-05T23:29:42.188Z,1.40
2023-12-05T23:32:27.852Z,1.35
2023-12-05T23:35:13.405Z,1.35
2023-12-05T23:37:58.751Z,1.30
2023-12-05T23:40:44.561Z,1.45
2023-12-05T23:43:30.229Z,1.55
2023-12-05T23:46:17.020Z,1.60
2023-12-05T23:49:02.641Z,1.60
2023-12-05T23:51:48.621Z,1.77
2023-12-05T23:54:35.319Z,1.70
2023-12-05T23:57:21.503Z,1.55
